createdAt,value
2017-12-16T00:01:03.012Z,2.20
2017-12-16T00:03:34.357Z,2.30
2017-12-16T00:06:04.761Z,2.20
2017-12-16T00:08:36.475Z,2.00
2017-12-16T00:11:08.014Z,2.00
2017-12-16T00:13:39.171Z,2.00
2017-12-16T00:16:09.747Z,2.00
2017-12-16T00:18:40.461Z,1.90
2017-12-16T00:21:11.275Z,2.00
2017-12-16T00:23:52.518Z,2.00
2017-12-16T00:26:24.913Z,2.00
2017-12-16T00:28:55.564Z,2.10
2017-12-16T00:31:27.881Z,2.30
2017-12-16T00:33:58.830Z,2.30
2017-12-16T00:36:29.618Z,2.40
2017-12-16T00:39:00.460Z,2.40
2017-12-16T00:41:31.166Z,2.40
2017-12-16T00:44:02.819Z,2.60
2017-12-16T00:46:33.708Z,2.50
2017-12-16T00:49:04.551Z,2.60
2017-12-16T00:51:34.969Z,2.60
2017-12-16T00:54:06.714Z,2.40
2017-12-16T00:56:37.269Z,2.30
2017-12-16T00:59:07.629Z,2.40
2017-12-16T01:01:38.207Z,2.50
2017-12-16T01:04:08.931Z,2.60
2017-12-16T01:06:39.631Z,2.50
2017-12-16T01:09:10.235Z,2.50
2017-12-16T01:11:40.873Z,2.60
2017-12-16T01:14:12.206Z,2.70
2017-12-16T01:16:42.564Z,2.60
2017-12-16T01:19:13.098Z,2.50
2017-12-16T01:21:43.745Z,2.50
2017-12-16T01:24:14.443Z,2.60
2017-12-16T01:26:45.039Z,2.70
2017-12-16T01:29:16.028Z,2.80
2017-12-16T01:31:48.316Z,2.80
2017-12-16T01:36:35.421Z,2.80
2017-12-16T01:39:06.783Z,2.50
2017-12-16T01:41:38.394Z,2.50
2017-12-16T01:44:08.778Z,2.40
2017-12-16T01:46:40.130Z,2.30
2017-12-16T01:49:10.932Z,2.30
2017-12-16T01:51:41.683Z,2.40
2017-12-16T01:54:12.254Z,2.40
2017-12-16T01:56:42.884Z,2.50
2017-12-16T01:59:14.418Z,2.60
2017-12-16T02:01:45.240Z,2.60
2017-12-16T02:04:15.980Z,2.50
2017-12-16T02:06:46.616Z,2.50
2017-12-16T02:09:40.366Z,2.50
2017-12-16T02:12:10.928Z,2.50
2017-12-16T02:14:41.977Z,2.50
2017-12-16T02:17:12.647Z,2.50
2017-12-16T02:19:43.262Z,2.50
2017-12-16T02:22:13.906Z,2.40
2017-12-16T02:24:45.044Z,2.20
2017-12-16T02:27:15.618Z,2.30
2017-12-16T02:29:46.261Z,2.40
2017-12-16T02:32:17.381Z,2.40
2017-12-16T02:34:49.119Z,2.50
2017-12-16T02:37:19.942Z,2.50
2017-12-16T02:39:51.428Z,2.50
2017-12-16T02:42:23.227Z,2.50
2017-12-16T02:44:53.712Z,2.60
2017-12-16T02:47:24.381Z,2.60
2017-12-16T02:49:55.063Z,2.70
2017-12-16T02:52:25.740Z,2.50
2017-12-16T02:54:56.537Z,2.20
2017-12-16T02:57:27.080Z,2.10
2017-12-16T02:59:58.132Z,2.30
2017-12-16T03:02:29.251Z,2.40
2017-12-16T03:04:59.986Z,2.40
2017-12-16T03:07:30.899Z,2.30
2017-12-16T03:10:02.352Z,2.30
2017-12-16T03:12:33.100Z,2.30
2017-12-16T03:15:03.839Z,2.30
2017-12-16T03:17:34.217Z,2.30
2017-12-16T03:20:05.154Z,2.30
2017-12-16T03:22:36.353Z,2.20
2017-12-16T03:25:07.294Z,2.30
2017-12-16T03:27:38.318Z,2.30
2017-12-16T03:30:09.134Z,2.40
2017-12-16T03:32:42.227Z,2.40
2017-12-16T03:35:13.102Z,2.60
2017-12-16T03:37:44.719Z,2.80
2017-12-16T03:40:16.395Z,2.90
2017-12-16T03:42:48.190Z,2.90
2017-12-16T03:45:19.198Z,2.90
2017-12-16T03:47:50.845Z,2.70
2017-12-16T03:50:21.581Z,2.70
2017-12-16T03:52:53.341Z,2.70
2017-12-16T03:55:27.847Z,2.50
2017-12-16T03:57:58.878Z,2.50
2017-12-16T04:00:29.619Z,2.40
2017-12-16T04:03:00.336Z,2.40
2017-12-16T04:05:31.331Z,2.20
2017-12-16T04:08:02.210Z,2.30
2017-12-16T04:10:33.165Z,2.30
2017-12-16T04:13:03.589Z,2.40
2017-12-16T04:15:34.153Z,2.30
2017-12-16T04:18:05.388Z,2.20
2017-12-16T04:20:36.309Z,2.30
2017-12-16T04:23:07.078Z,2.50
2017-12-16T04:25:37.811Z,2.60
2017-12-16T04:28:09.616Z,2.70
2017-12-16T04:30:40.586Z,2.70
2017-12-16T04:33:11.503Z,2.70
2017-12-16T04:35:42.321Z,2.60
2017-12-16T04:38:13.803Z,2.70
2017-12-16T04:40:44.822Z,2.70
2017-12-16T04:43:15.808Z,2.60
2017-12-16T04:45:47.446Z,2.60
2017-12-16T04:48:18.631Z,2.50
2017-12-16T04:50:49.105Z,2.60
2017-12-16T04:53:20.168Z,2.60
2017-12-16T04:55:51.314Z,2.40
2017-12-16T04:58:22.656Z,2.30
2017-12-16T05:00:53.797Z,2.30
2017-12-16T05:03:24.396Z,2.30
2017-12-16T05:05:55.988Z,2.10
2017-12-16T05:08:28.069Z,2.00
2017-12-16T05:10:59.722Z,2.10
2017-12-16T05:13:30.379Z,2.00
2017-12-16T05:16:01.405Z,2.20
2017-12-16T05:18:33.675Z,2.30
2017-12-16T05:21:04.416Z,2.30
2017-12-16T05:23:35.128Z,2.30
2017-12-16T05:26:06.218Z,2.20
2017-12-16T05:28:36.977Z,2.30
2017-12-16T05:31:07.971Z,2.30
2017-12-16T05:33:38.701Z,2.30
2017-12-16T05:36:10.135Z,2.20
2017-12-16T05:38:41.031Z,2.20
2017-12-16T05:41:11.961Z,2.20
2017-12-16T05:43:44.172Z,2.40
2017-12-16T05:46:14.867Z,2.40
2017-12-16T05:48:46.366Z,2.40
2017-12-16T05:51:17.963Z,2.60
2017-12-16T05:54:07.423Z,2.50
2017-12-16T05:56:38.842Z,2.60
2017-12-16T05:59:09.503Z,2.60
2017-12-16T06:01:39.846Z,2.50
2017-12-16T06:04:10.263Z,2.60
2017-12-16T06:06:40.898Z,2.70
2017-12-16T06:09:11.236Z,2.60
2017-12-16T06:11:41.834Z,2.60
2017-12-16T06:14:13.315Z,2.50
2017-12-16T06:16:43.984Z,2.40
2017-12-16T06:19:16.050Z,2.40
2017-12-16T06:21:46.809Z,2.40
2017-12-16T06:24:17.459Z,2.40
2017-12-16T06:26:47.816Z,2.50
2017-12-16T06:29:18.449Z,2.40
2017-12-16T06:31:49.083Z,2.50
2017-12-16T06:34:19.695Z,2.50
2017-12-16T06:36:50.108Z,2.40
2017-12-16T06:39:21.927Z,2.30
2017-12-16T06:41:53.528Z,2.40
2017-12-16T06:44:41.723Z,2.30
2017-12-16T06:48:09.459Z,2.20
2017-12-16T06:53:45.316Z,2.00
2017-12-16T06:56:16.855Z,2.00
2017-12-16T06:58:47.265Z,2.20
2017-12-16T07:01:17.645Z,2.20
2017-12-16T07:03:49.537Z,2.30
2017-12-16T07:06:20.269Z,2.20
2017-12-16T07:08:50.970Z,2.10
2017-12-16T07:11:21.589Z,2.10
2017-12-16T07:13:52.159Z,2.20
2017-12-16T07:16:22.762Z,2.30
2017-12-16T07:18:59.819Z,2.30
2017-12-16T07:21:32.449Z,2.30
2017-12-16T07:24:03.829Z,2.30
2017-12-16T07:26:35.301Z,2.20
2017-12-16T07:29:06.372Z,2.30
2017-12-16T07:31:37.232Z,2.30
2017-12-16T07:34:10.983Z,2.50
2017-12-16T07:36:41.614Z,2.50
2017-12-16T07:39:12.284Z,2.50
2017-12-16T07:41:43.210Z,2.60
2017-12-16T07:44:13.754Z,2.60
2017-12-16T07:46:44.760Z,2.70
2017-12-16T07:49:15.414Z,2.70
2017-12-16T07:51:47.892Z,2.90
2017-12-16T09:16:29.881Z,2.90
2017-12-16T09:19:00.933Z,4.50
2017-12-16T09:21:33.065Z,4.50
2017-12-16T09:24:05.102Z,4.50
2017-12-16T09:26:36.881Z,4.40
2017-12-16T09:29:07.966Z,4.70
2017-12-16T09:31:44.152Z,4.80
2017-12-16T09:34:26.425Z,5.20
2017-12-16T09:36:58.039Z,5.20
2017-12-16T09:39:29.176Z,5.40
2017-12-16T09:42:00.295Z,5.40
2017-12-16T09:44:34.150Z,5.60
2017-12-16T09:47:04.912Z,5.60
2017-12-16T09:49:38.940Z,5.30
2017-12-16T09:52:10.556Z,5.30
2017-12-16T09:54:52.927Z,5.40
2017-12-16T09:57:37.322Z,5.30
2017-12-16T10:00:09.730Z,5.40
2017-12-16T11:39:59.212Z,5.50
2017-12-16T11:45:10.980Z,5.40
2017-12-16T11:47:45.740Z,5.40
2017-12-16T11:50:18.576Z,5.50
2017-12-16T11:52:49.300Z,5.60
2017-12-16T11:55:19.826Z,5.70
2017-12-16T11:57:51.391Z,5.60
2017-12-16T12:00:23.575Z,5.70
2017-12-16T12:06:32.564Z,5.40
2017-12-16T12:09:03.986Z,5.40
2017-12-16T12:11:36.097Z,5.50
2017-12-16T12:14:07.360Z,5.30
2017-12-16T12:16:40.385Z,5.00
2017-12-16T12:22:57.495Z,5.10
2017-12-16T12:25:31.027Z,5.20
2017-12-16T12:28:02.448Z,5.30
2017-12-16T12:30:33.875Z,5.30
2017-12-16T12:33:08.322Z,5.20
2017-12-16T12:35:39.066Z,5.20
2017-12-16T12:38:14.928Z,4.80
2017-12-16T12:41:15.990Z,4.80
2017-12-16T12:44:06.380Z,4.70
2017-12-16T12:46:40.248Z,4.50
2017-12-16T12:49:14.722Z,4.40
2017-12-16T12:51:48.108Z,4.60
2017-12-16T12:54:20.519Z,4.50
2017-12-16T12:56:56.066Z,4.60
2017-12-16T12:59:27.940Z,4.50
2017-12-16T13:02:48.543Z,4.70
2017-12-16T13:05:22.237Z,4.70
2017-12-16T13:07:53.484Z,4.90
2017-12-16T13:10:24.038Z,4.90
2017-12-16T13:14:02.784Z,5.00
2017-12-16T13:16:34.082Z,5.00
2017-12-16T13:19:12.193Z,5.10
2017-12-16T13:21:45.707Z,5.20
2017-12-16T13:24:24.410Z,5.20
2017-12-16T13:26:59.292Z,5.30
2017-12-16T13:29:30.280Z,5.20
2017-12-16T13:32:06.816Z,5.20
2017-12-16T13:34:47.596Z,4.70
2017-12-16T13:37:18.374Z,4.70
2017-12-16T13:39:49.362Z,4.80
2017-12-16T13:42:26.439Z,4.30
2017-12-16T13:44:59.222Z,4.30
2017-12-16T13:47:33.344Z,4.50
2017-12-16T13:50:49.987Z,4.60
2017-12-16T13:53:20.807Z,4.70
2017-12-16T13:55:53.396Z,4.70
2017-12-16T13:58:27.013Z,4.30
2017-12-16T14:00:59.914Z,4.30
2017-12-16T14:03:59.060Z,4.00
2017-12-16T14:06:30.419Z,4.10
2017-12-16T14:09:02.094Z,4.00
2017-12-16T14:11:33.935Z,3.90
2017-12-16T14:14:05.323Z,3.80
2017-12-16T14:16:36.280Z,3.80
2017-12-16T14:19:10.992Z,3.80
2017-12-16T14:22:09.790Z,3.50
2017-12-16T14:24:40.888Z,3.40
2017-12-16T14:27:11.736Z,3.40
2017-12-16T14:29:42.235Z,3.60
2017-12-16T14:32:13.240Z,3.60
2017-12-16T14:34:47.428Z,3.70
2017-12-16T14:37:25.203Z,3.50
2017-12-16T14:40:43.063Z,3.30
2017-12-16T14:43:17.774Z,3.20
2017-12-16T14:45:51.227Z,2.80
2017-12-16T14:48:54.032Z,2.60
2017-12-16T14:51:25.064Z,2.20
2017-12-16T14:53:58.050Z,2.20
2017-12-16T14:56:29.393Z,2.20
2017-12-16T14:59:03.981Z,2.30
2017-12-16T15:01:34.926Z,2.40
2017-12-16T15:04:06.342Z,2.50
2017-12-16T15:06:38.205Z,2.50
2017-12-16T15:09:10.516Z,2.50
2017-12-16T15:11:42.696Z,2.70
2017-12-16T15:14:16.218Z,2.80
2017-12-16T15:16:51.933Z,2.50
2017-12-16T15:19:32.580Z,2.70
2017-12-16T15:22:05.079Z,2.70
2017-12-16T15:24:39.473Z,2.80
2017-12-16T15:27:51.755Z,2.70
2017-12-16T15:33:26.082Z,3.20
2017-12-16T15:35:59.414Z,3.20
2017-12-16T15:38:31.504Z,3.00
2017-12-16T15:41:03.741Z,3.10
2017-12-16T15:43:36.963Z,3.20
2017-12-16T15:46:09.725Z,3.10
2017-12-16T15:48:42.811Z,3.10
2017-12-16T15:51:16.778Z,3.10
2017-12-16T15:53:51.575Z,3.30
2017-12-16T15:56:25.932Z,3.40
2017-12-16T15:59:42.704Z,3.50
2017-12-16T16:02:21.887Z,3.40
2017-12-16T16:04:57.636Z,3.30
2017-12-16T16:07:31.786Z,3.20
2017-12-16T16:10:20.967Z,2.90
2017-12-16T16:12:53.851Z,2.90
2017-12-16T16:15:27.680Z,3.10
2017-12-16T16:18:03.175Z,3.10
2017-12-16T16:20:52.867Z,2.90
2017-12-16T16:23:31.213Z,3.10
2017-12-16T16:29:14.863Z,3.30
2017-12-16T16:31:46.041Z,3.20
2017-12-16T16:34:16.769Z,3.40
2017-12-16T16:36:54.622Z,3.40
2017-12-16T16:39:30.601Z,3.40
2017-12-16T16:42:03.860Z,3.20
2017-12-16T16:44:34.840Z,3.20
2017-12-16T16:47:06.464Z,3.00
2017-12-16T16:49:38.716Z,2.90
2017-12-16T16:52:09.012Z,3.10
2017-12-16T16:54:39.433Z,3.20
2017-12-16T16:57:11.383Z,3.40
2017-12-16T16:59:42.896Z,3.30
2017-12-16T17:02:14.909Z,3.40
2017-12-16T17:04:52.764Z,3.30
2017-12-16T17:07:23.976Z,3.10
2017-12-16T17:09:54.803Z,3.10
2017-12-16T17:12:25.594Z,2.90
2017-12-16T17:14:56.808Z,2.90
2017-12-16T17:17:27.510Z,3.00
2017-12-16T17:19:58.558Z,2.80
2017-12-16T17:22:29.408Z,2.70
2017-12-16T17:25:00.424Z,2.80
2017-12-16T17:27:31.154Z,2.70
2017-12-16T17:30:02.039Z,2.70
2017-12-16T17:32:34.047Z,2.70
2017-12-16T17:35:06.179Z,2.60
2017-12-16T17:37:37.875Z,2.70
2017-12-16T17:40:18.812Z,2.50
2017-12-16T17:42:49.732Z,2.40
2017-12-16T17:45:21.843Z,2.20
2017-12-16T17:47:54.186Z,2.00
2017-12-16T17:50:25.423Z,2.00
2017-12-16T17:56:31.784Z,2.20
2017-12-16T17:59:03.296Z,2.30
2017-12-16T18:01:35.129Z,2.40
2017-12-16T18:04:06.876Z,2.40
2017-12-16T18:06:40.503Z,2.30
2017-12-16T18:09:11.225Z,2.30
2017-12-16T18:11:41.972Z,2.30
2017-12-16T18:14:12.818Z,2.10
2017-12-16T18:19:44.511Z,2.10
2017-12-16T18:22:15.549Z,2.00
2017-12-16T18:24:46.463Z,2.00
2017-12-16T18:27:17.232Z,2.10
2017-12-16T18:29:54.114Z,2.20
2017-12-16T18:32:28.099Z,1.90
2017-12-16T18:34:58.827Z,1.90
2017-12-16T18:37:29.398Z,1.90
2017-12-16T18:40:00.407Z,1.90
2017-12-16T18:42:31.051Z,1.90
2017-12-16T18:45:02.600Z,1.80
2017-12-16T18:47:34.213Z,1.80
2017-12-16T18:50:04.712Z,1.90
2017-12-16T18:52:35.572Z,2.00
2017-12-16T18:55:10.187Z,2.10
2017-12-16T18:57:40.761Z,2.10
2017-12-16T19:00:11.538Z,2.30
2017-12-16T19:02:42.250Z,2.30
2017-12-16T19:05:13.055Z,2.40
2017-12-16T19:07:45.343Z,2.30
2017-12-16T19:10:23.102Z,2.30
2017-12-16T19:12:54.348Z,2.20
2017-12-16T19:15:28.213Z,2.20
2017-12-16T19:18:03.534Z,2.30
2017-12-16T19:20:35.266Z,2.30
2017-12-16T19:23:06.334Z,2.30
2017-12-16T19:25:37.657Z,2.30
2017-12-16T19:28:12.447Z,2.30
2017-12-16T19:30:51.017Z,2.40
2017-12-16T19:33:23.160Z,2.20
2017-12-16T19:35:56.654Z,2.20
2017-12-16T19:38:29.030Z,2.00
2017-12-16T19:40:59.869Z,2.00
2017-12-16T19:43:31.864Z,2.20
2017-12-16T19:46:03.052Z,2.20
2017-12-16T19:48:33.808Z,2.30
2017-12-16T19:51:04.152Z,2.30
2017-12-16T19:53:34.728Z,2.30
2017-12-16T19:56:06.051Z,2.10
2017-12-16T19:58:37.510Z,2.20
2017-12-16T20:01:09.688Z,2.20
2017-12-16T20:03:40.263Z,2.20
2017-12-16T20:06:10.546Z,2.30
2017-12-16T20:08:40.734Z,2.40
2017-12-16T20:11:15.592Z,2.30
2017-12-16T20:13:48.456Z,2.30
2017-12-16T20:16:19.392Z,2.30
2017-12-16T20:18:50.352Z,2.40
2017-12-16T20:21:21.694Z,2.40
2017-12-16T20:23:57.502Z,2.50
2017-12-16T20:26:29.913Z,2.40
2017-12-16T20:29:00.506Z,2.50
2017-12-16T20:31:32.203Z,2.40
2017-12-16T20:34:03.137Z,2.20
2017-12-16T20:36:35.706Z,2.10
2017-12-16T20:39:45.060Z,2.30
2017-12-16T20:42:18.055Z,2.30
2017-12-16T20:44:48.833Z,2.30
2017-12-16T20:47:19.723Z,2.20
2017-12-16T20:49:50.389Z,2.00
2017-12-16T20:52:21.762Z,2.20
2017-12-16T20:54:52.958Z,2.20
2017-12-16T20:57:24.976Z,2.10
2017-12-16T21:00:17.795Z,2.00
2017-12-16T21:02:48.413Z,2.20
2017-12-16T21:05:18.668Z,2.10
2017-12-16T21:07:49.983Z,2.30
2017-12-16T21:10:20.432Z,2.30
2017-12-16T21:12:50.658Z,2.40
2017-12-16T21:15:21.568Z,2.40
2017-12-16T21:17:52.864Z,2.40
2017-12-16T21:20:23.494Z,2.40
2017-12-16T21:22:59.914Z,2.50
2017-12-16T21:25:30.370Z,2.40
2017-12-16T21:28:01.030Z,2.10
2017-12-16T21:30:33.089Z,2.10
2017-12-16T21:33:03.788Z,2.30
2017-12-16T21:35:35.867Z,2.30
2017-12-16T21:38:06.803Z,2.20
2017-12-16T21:40:39.593Z,2.30
2017-12-16T21:43:11.304Z,2.00
2017-12-16T21:45:42.957Z,1.90
2017-12-16T21:48:13.287Z,1.90
2017-12-16T21:50:43.880Z,1.90
2017-12-16T21:53:15.060Z,2.10
2017-12-16T21:55:45.587Z,1.80
2017-12-16T21:58:22.298Z,1.80
2017-12-16T22:00:58.945Z,1.80
2017-12-16T22:03:30.048Z,2.00
2017-12-16T22:06:02.137Z,2.00
2017-12-16T22:08:33.110Z,2.10
2017-12-16T22:11:09.499Z,2.00
2017-12-16T22:13:40.168Z,2.00
2017-12-16T22:16:17.877Z,1.90
2017-12-16T22:18:49.223Z,1.70
2017-12-16T22:21:21.905Z,1.10
2017-12-16T22:23:55.020Z,1.10
2017-12-16T22:26:26.431Z,1.10
2017-12-16T22:29:00.433Z,1.30
2017-12-16T22:31:32.907Z,1.30
2017-12-16T22:34:09.789Z,1.20
2017-12-16T22:36:41.184Z,1.20
2017-12-16T22:39:22.225Z,1.30
2017-12-16T22:41:53.240Z,1.40
2017-12-16T22:44:24.119Z,1.40
2017-12-16T22:46:56.255Z,1.40
2017-12-16T22:49:27.684Z,1.50
2017-12-16T22:51:58.226Z,1.40
2017-12-16T22:54:29.915Z,1.70
2017-12-16T22:57:01.095Z,1.70
2017-12-16T23:00:13.210Z,1.40
2017-12-16T23:02:44.635Z,1.40
2017-12-16T23:05:16.164Z,1.40
2017-12-16T23:07:46.613Z,1.60
2017-12-16T23:10:23.369Z,2.00
2017-12-16T23:12:55.006Z,2.20
2017-12-16T23:15:25.508Z,2.20
2017-12-16T23:17:55.744Z,2.30
2017-12-16T23:20:27.427Z,1.70
2017-12-16T23:22:57.628Z,1.70
2017-12-16T23:25:29.109Z,2.00
2017-12-16T23:27:59.937Z,2.00
2017-12-16T23:30:30.137Z,1.70
2017-12-16T23:33:02.671Z,2.00
2017-12-16T23:35:33.278Z,2.00
2017-12-16T23:38:03.846Z,1.90
2017-12-16T23:40:34.897Z,1.70
2017-12-16T23:43:05.136Z,1.90
2017-12-16T23:45:36.429Z,1.80
2017-12-16T23:48:07.014Z,1.70
2017-12-16T23:50:38.646Z,1.90
2017-12-16T23:53:10.352Z,1.80
2017-12-16T23:55:46.314Z,1.70
2017-12-16T23:58:19.761Z,1.60
